Etusivu
METAR-TAF:

METAR-TAF

Lentoasemat :

Fourchambault

Nevers, Ranska

Leveyspiiri: 47-00N, Pituuspiiri: 003-06E, korkeus merenpinnasta: 180 m

Tämänhetkinen sää

Tämä raportti tehtiin 32 minuuttia sitten, kello 17.00 UTC
tyyntä
Lämpötila 4°C
Kosteus 87%
Ilmanpaine 1008 hPa
Näkyvyys 10 km tai enemmän
ei pilviä alle 1500 m:ssä eikä cumulonimbus-pilviä

METAR: LFQG 201700Z AUTO 00000KT CAVOK 04/02 Q1008

Aika: 18:32 (17:32 UTC)


TAF: puuttuu

Säähavainnot ja -ennusteet yli 4000 lentoasemalta (METAR- ja TAF-raportit).

Käytössä olevat sääasemat on merkitty karttaan keltaisilla ja punaisilla pisteillä.

Aseta hiiri pisteen päälle nähdäksesi sääaseman nimen.

Klikkaa sitten nähdäksesi säähavainnot ja -ennusteet.

Kartan vaihtaminen: klikkaa mustalla rastilla varustettuja vihreitä pisteitä, niin voit zoomata sisään; viivalla varustettua vihreää pistettä, niin voit zoomata ulos tai vihreitä nuolia, niin pääset viereisille kartoille.


METAR-TAF: